Time;durP1;ratioP1;P1;durP2;ratioP2;P2;SDS_P1;SDS_P2;PMS_P1;PMS_P2;Temp;Humidity;BMP_temperature;BMP_pressure;BME280_temperature;BME280_humidity;BME280_pressure;Samples;Min_cycle;Max_cycle;Signal;HPM_P1;HPM_P2
2022/04/26 03:36:07;;;;;;;17.80;15.90;;;11.30;99.90;;;;;;5069274;28;20191;-57
2022/04/26 03:38:33;;;;;;;20.17;17.35;;;11.30;99.90;;;;;;5070952;28;20185;-57
2022/04/26 03:40:59;;;;;;;21.20;18.23;;;11.30;99.90;;;;;;5067668;28;20196;-57
2022/04/26 03:43:24;;;;;;;24.00;18.73;;;11.30;99.90;;;;;;5055415;28;20236;-58
2022/04/26 03:45:50;;;;;;;23.67;20.80;;;11.30;99.90;;;;;;5070208;28;20244;-58
2022/04/26 03:48:16;;;;;;;21.83;19.43;;;11.00;99.90;;;;;;5073423;28;20186;-58
2022/04/26 03:50:41;;;;;;;23.60;18.93;;;11.20;99.90;;;;;;5072541;28;20194;-58
2022/04/26 03:53:07;;;;;;;23.60;18.37;;;11.30;99.90;;;;;;5068543;28;20263;-58
2022/04/26 03:55:32;;;;;;;22.67;19.33;;;11.10;99.90;;;;;;5082543;28;20189;-59
2022/04/26 03:57:58;;;;;;;17.30;15.50;;;11.00;99.90;;;;;;5063054;28;20758;-58
2022/04/26 04:00:26;;;;;;;18.83;16.83;;;11.20;99.90;;;;;;5081277;28;20185;-58
2022/04/26 04:02:51;;;;;;;19.83;17.80;;;11.10;99.90;;;;;;5074016;28;20186;-60
2022/04/26 04:05:17;;;;;;;20.77;17.67;;;11.10;99.90;;;;;;5071890;28;20825;-58
2022/04/26 04:07:43;;;;;;;20.27;18.17;;;11.00;99.90;;;;;;5061664;28;20197;-59
2022/04/26 04:10:09;;;;;;;18.97;17.00;;;10.90;99.90;;;;;;5073506;28;20193;-57
2022/04/26 04:12:34;;;;;;;19.00;16.80;;;11.10;99.90;;;;;;5066260;28;20186;-57
2022/04/26 04:15:00;;;;;;;20.80;18.60;;;11.20;99.90;;;;;;5066821;28;20995;-57
2022/04/26 04:17:26;;;;;;;19.60;16.90;;;11.00;99.90;;;;;;5069994;28;20472;-57
2022/04/26 04:19:51;;;;;;;19.43;17.43;;;10.90;99.90;;;;;;5072019;28;20181;-57
2022/04/26 04:22:17;;;;;;;19.20;17.20;;;10.90;99.90;;;;;;5072278;28;20697;-57
2022/04/26 04:24:43;;;;;;;21.40;18.43;;;10.70;99.90;;;;;;5071652;28;20217;-58
2022/04/26 04:27:10;;;;;;;22.10;18.67;;;10.70;99.90;;;;;;5067696;28;20291;-59
2022/04/26 04:29:36;;;;;;;21.63;18.42;;;11.00;99.90;;;;;;5071370;28;20244;-58
2022/04/26 04:32:01;;;;;;;24.07;18.37;;;10.90;99.90;;;;;;5072033;28;20665;-58
2022/04/26 04:34:27;;;;;;;18.83;16.87;;;11.10;99.90;;;;;;5071567;28;20260;-56
2022/04/26 04:36:53;;;;;;;18.30;16.40;;;11.10;99.90;;;;;;5085441;28;20220;-58
2022/04/26 04:39:23;;;;;;;20.40;16.20;;;11.10;99.90;;;;;;5075783;28;20209;-57
2022/04/26 04:41:49;;;;;;;18.27;15.48;;;10.90;99.90;;;;;;5078239;28;20188;-58
2022/04/26 04:44:15;;;;;;;19.42;16.90;;;11.10;99.90;;;;;;5069708;28;20288;-58
2022/04/26 04:46:41;;;;;;;19.97;17.63;;;11.00;99.90;;;;;;5069812;28;20296;-58
2022/04/26 04:49:06;;;;;;;19.17;17.17;;;11.00;99.90;;;;;;5075679;28;20720;-57
2022/04/26 04:51:32;;;;;;;19.80;16.80;;;10.90;99.90;;;;;;5069288;28;20181;-57
2022/04/26 04:53:58;;;;;;;19.50;17.40;;;11.00;99.90;;;;;;5069469;28;20209;-58
2022/04/26 04:56:26;;;;;;;18.43;16.53;;;11.30;99.90;;;;;;5061614;28;20481;-57
2022/04/26 04:58:52;;;;;;;18.63;16.65;;;11.10;99.90;;;;;;5066074;28;20177;-57
2022/04/26 05:01:18;;;;;;;18.85;16.85;;;11.30;99.90;;;;;;5068976;28;20265;-58
2022/04/26 05:03:44;;;;;;;19.37;17.37;;;11.20;99.90;;;;;;5058336;28;20284;-57
2022/04/26 05:06:14;;;;;;;19.53;16.50;;;10.90;99.90;;;;;;5070358;28;20225;-57
2022/04/26 05:08:39;;;;;;;18.33;16.35;;;11.00;99.90;;;;;;5062145;28;20205;-58
2022/04/26 05:11:06;;;;;;;19.70;17.27;;;10.90;99.90;;;;;;5063567;28;20189;-58
2022/04/26 05:13:32;;;;;;;18.27;16.27;;;10.90;99.90;;;;;;5072308;28;20484;-57
2022/04/26 05:15:57;;;;;;;18.50;16.47;;;11.10;99.90;;;;;;5079822;28;20611;-58
2022/04/26 05:18:23;;;;;;;19.90;17.30;;;11.10;99.90;;;;;;5065876;28;20273;-57
2022/04/26 05:20:49;;;;;;;18.20;16.05;;;11.00;99.90;;;;;;5067624;28;20186;-58
2022/04/26 05:25:59;;;;;;;17.65;15.75;;;11.20;99.90;;;;;;5066690;28;20271;-57
2022/04/26 05:28:24;;;;;;;18.23;16.47;;;11.30;99.90;;;;;;5076205;28;20174;-58
2022/04/26 05:30:53;;;;;;;18.00;15.87;;;11.30;99.90;;;;;;5070960;28;20182;-58
2022/04/26 05:33:21;;;;;;;18.70;16.75;;;11.40;99.90;;;;;;5069454;28;20192;-58
2022/04/26 05:35:49;;;;;;;17.50;15.70;;;11.40;99.90;;;;;;5070065;28;20269;-57
2022/04/26 05:38:15;;;;;;;20.83;18.13;;;11.60;99.90;;;;;;5066107;28;20191;-57
2022/04/26 05:40:41;;;;;;;17.10;15.30;;;11.50;99.90;;;;;;5070750;28;20563;-57
2022/04/26 05:43:07;;;;;;;18.23;15.90;;;11.20;99.90;;;;;;5079813;28;20189;-57
2022/04/26 05:45:33;;;;;;;17.70;15.90;;;11.20;99.90;;;;;;5072576;28;20177;-57
2022/04/26 05:47:59;;;;;;;18.70;15.73;;;11.50;99.90;;;;;;5067495;28;21197;-57
2022/04/26 05:50:25;;;;;;;19.03;17.07;;;11.40;99.90;;;;;;5078357;28;20194;-60
2022/04/26 05:52:50;;;;;;;16.13;14.00;;;11.20;99.90;;;;;;5070283;28;20476;-59
2022/04/26 05:55:16;;;;;;;17.23;15.43;;;11.20;99.90;;;;;;5068730;28;20458;-58
2022/04/26 05:57:42;;;;;;;17.27;15.40;;;11.20;99.90;;;;;;5066255;28;20209;-59
2022/04/26 06:00:10;;;;;;;18.83;16.50;;;11.10;99.90;;;;;;5054712;28;20353;-59
2022/04/26 06:02:36;;;;;;;17.90;15.90;;;11.00;99.90;;;;;;5054745;28;21067;-58
2022/04/26 06:05:02;;;;;;;20.30;17.50;;;11.00;99.90;;;;;;5066227;28;20224;-59
2022/04/26 06:07:28;;;;;;;17.58;15.77;;;11.10;99.90;;;;;;5068131;28;20189;-59
2022/04/26 06:09:55;;;;;;;19.20;17.20;;;11.20;99.90;;;;;;5060001;28;20746;-63
2022/04/26 06:12:26;;;;;;;18.38;16.50;;;11.00;99.90;;;;;;5061327;28;20194;-64
2022/04/26 06:14:55;;;;;;;17.90;16.10;;;11.00;99.90;;;;;;5060472;28;20209;-62
2022/04/26 06:17:21;;;;;;;17.58;15.73;;;10.90;99.90;;;;;;5062397;28;20320;-65
2022/04/26 06:19:47;;;;;;;18.93;17.00;;;10.80;99.90;;;;;;5070643;28;20270;-64
2022/04/26 06:22:13;;;;;;;16.35;14.68;;;10.80;99.90;;;;;;5070321;28;20440;-64
2022/04/26 06:24:39;;;;;;;18.33;15.70;;;11.00;99.90;;;;;;5055540;28;20240;-64
2022/04/26 06:27:04;;;;;;;18.83;16.90;;;11.00;99.90;;;;;;5065258;28;20222;-64
2022/04/26 06:29:30;;;;;;;18.40;16.40;;;11.10;99.90;;;;;;5065883;28;20174;-57
2022/04/26 06:31:56;;;;;;;18.77;16.90;;;10.90;99.90;;;;;;5063319;28;20177;-58
2022/04/26 06:34:22;;;;;;;19.50;16.37;;;11.30;99.90;;;;;;5072084;28;20276;-57
2022/04/26 06:36:47;;;;;;;22.03;16.97;;;11.50;99.90;;;;;;5067451;28;20206;-58
2022/04/26 06:39:13;;;;;;;18.30;16.40;;;11.40;99.90;;;;;;5068589;28;20270;-58
2022/04/26 06:41:39;;;;;;;19.50;15.93;;;11.60;99.90;;;;;;5063099;28;20179;-58
2022/04/26 06:44:04;;;;;;;17.70;16.00;;;11.70;99.90;;;;;;5059866;28;20211;-57
2022/04/26 06:46:30;;;;;;;17.03;15.33;;;11.70;99.90;;;;;;5060845;28;20710;-58
2022/04/26 06:49:00;;;;;;;18.00;16.10;;;11.80;99.90;;;;;;5059834;28;20179;-57
2022/04/26 06:51:26;;;;;;;19.67;16.10;;;11.50;99.90;;;;;;5064611;28;20941;-56
2022/04/26 06:53:51;;;;;;;17.20;15.50;;;11.80;99.90;;;;;;5059274;28;20212;-57
2022/04/26 06:56:17;;;;;;;14.43;13.00;;;11.60;99.90;;;;;;5055837;28;20240;-57
2022/04/26 06:58:43;;;;;;;16.13;14.40;;;11.40;99.90;;;;;;5068896;28;20508;-57
2022/04/26 07:01:09;;;;;;;16.43;13.23;;;11.50;99.90;;;;;;5072592;28;20183;-57
2022/04/26 07:03:34;;;;;;;17.87;15.97;;;11.80;99.90;;;;;;5063498;28;20203;-57
2022/04/26 07:06:00;;;;;;;17.50;15.60;;;11.60;99.90;;;;;;5063922;28;20194;-56
2022/04/26 07:08:26;;;;;;;16.40;14.53;;;11.80;99.90;;;;;;5061298;28;20179;-58
2022/04/26 07:10:51;;;;;;;15.70;14.20;;;11.90;99.90;;;;;;5061561;28;20316;-55
2022/04/26 07:13:20;;;;;;;14.07;12.67;;;11.90;99.90;;;;;;5069041;28;20194;-56
2022/04/26 07:15:46;;;;;;;13.05;11.75;;;11.80;99.90;;;;;;5064064;28;20179;-57
2022/04/26 07:18:14;;;;;;;13.90;12.45;;;12.20;99.90;;;;;;5058800;28;20938;-57
2022/04/26 07:20:44;;;;;;;12.40;11.30;;;11.90;99.90;;;;;;5066108;28;20205;-55
2022/04/26 07:23:10;;;;;;;12.80;11.00;;;12.10;99.90;;;;;;5072867;28;20184;-55
2022/04/26 07:25:35;;;;;;;12.05;10.85;;;12.00;99.90;;;;;;5074904;28;20266;-57
2022/04/26 07:28:01;;;;;;;12.53;11.43;;;12.20;99.90;;;;;;5066253;28;20290;-56
2022/04/26 07:30:34;;;;;;;9.23;8.33;;;13.30;99.90;;;;;;5074385;28;20175;-56
2022/04/26 07:35:49;;;;;;;7.75;7.05;;;15.30;99.90;;;;;;5076194;28;20724;-55
2022/04/26 07:38:14;;;;;;;7.97;6.97;;;15.90;99.90;;;;;;5061618;28;20189;-56
2022/04/26 07:40:41;;;;;;;7.40;6.80;;;15.40;99.90;;;;;;5064670;28;20740;-57
2022/04/26 07:43:07;;;;;;;8.30;7.60;;;15.80;99.90;;;;;;5071536;28;20958;-57
2022/04/26 07:45:37;;;;;;;7.80;7.20;;;16.20;99.90;;;;;;5067920;28;20185;-58
2022/04/26 07:48:07;;;;;;;7.30;6.60;;;15.80;99.90;;;;;;5063445;28;20180;-57
2022/04/26 07:50:34;;;;;;;9.25;7.88;;;15.50;99.90;;;;;;5072181;28;20189;-58
2022/04/26 07:53:01;;;;;;;8.20;7.50;;;15.70;99.90;;;;;;5072192;28;20282;-56
2022/04/26 07:55:28;;;;;;;8.07;7.30;;;15.80;99.90;;;;;;5077111;28;20188;-65
2022/04/26 07:57:54;;;;;;;8.23;7.32;;;15.60;99.90;;;;;;5071186;28;20240;-60
2022/04/26 08:00:20;;;;;;;9.27;8.48;;;14.80;99.90;;;;;;5072609;28;20180;-60
2022/04/26 08:02:46;;;;;;;9.63;7.63;;;14.70;99.90;;;;;;5077239;28;20185;-58
2022/04/26 08:05:14;;;;;;;7.80;7.10;;;14.50;99.90;;;;;;5075653;28;20204;-58
2022/04/26 08:07:41;;;;;;;8.35;7.65;;;14.60;99.90;;;;;;5062105;28;20445;-57
2022/04/26 08:10:11;;;;;;;9.40;7.95;;;14.70;99.90;;;;;;5065756;28;20189;-57
2022/04/26 08:12:42;;;;;;;7.38;6.78;;;14.40;99.90;;;;;;5059927;28;20209;-56
2022/04/26 08:15:10;;;;;;;8.80;7.30;;;14.30;99.90;;;;;;5068400;28;20626;-57
2022/04/26 08:17:37;;;;;;;7.25;6.53;;;14.10;99.90;;;;;;5062815;28;20554;-56
2022/04/26 08:20:04;;;;;;;8.45;7.75;;;13.70;99.90;;;;;;5066714;28;20181;-56
2022/04/26 08:22:30;;;;;;;9.70;8.80;;;13.50;99.90;;;;;;5066442;28;20187;-56
2022/04/26 08:27:40;;;;;;;9.40;8.30;;;13.40;99.90;;;;;;5065116;28;20280;-56
2022/04/26 08:30:06;;;;;;;8.60;7.80;;;13.50;99.90;;;;;;5072848;28;20356;-54
2022/04/26 08:32:46;;;;;;;9.18;8.23;;;13.50;99.90;;;;;;5062163;28;20235;-62
2022/04/26 08:35:16;;;;;;;9.00;7.68;;;13.40;99.90;;;;;;5062294;28;20213;-58
2022/04/26 08:37:43;;;;;;;8.45;7.63;;;13.50;99.90;;;;;;5059164;28;20720;-58
2022/04/26 08:40:09;;;;;;;7.88;7.07;;;13.50;99.90;;;;;;5060664;28;20196;-58
2022/04/26 08:42:37;;;;;;;8.68;7.82;;;13.60;99.90;;;;;;5065192;28;20177;-67
2022/04/26 08:45:05;;;;;;;8.15;7.45;;;13.90;99.90;;;;;;5064084;28;20205;-65
2022/04/26 08:52:59;;;;;;;8.90;7.35;;;15.10;99.90;;;;;;5058089;28;20284;-61
2022/04/26 08:55:25;;;;;;;7.13;6.50;;;15.40;99.90;;;;;;5068917;28;20192;-61
2022/04/26 08:57:51;;;;;;;9.05;8.18;;;15.20;99.90;;;;;;5061631;28;20210;-63
2022/04/26 09:00:17;;;;;;;8.25;7.55;;;15.20;99.90;;;;;;5076020;28;20177;-62
2022/04/26 09:02:43;;;;;;;8.50;7.77;;;14.60;99.90;;;;;;5064241;28;20665;-66
2022/04/26 09:05:14;;;;;;;9.10;8.20;;;14.50;99.90;;;;;;5069975;28;20466;-56
2022/04/26 09:07:45;;;;;;;9.50;8.70;;;14.90;99.90;;;;;;5069146;28;20397;-56
2022/04/26 09:10:13;;;;;;;8.00;7.30;;;15.20;99.90;;;;;;5069427;28;20175;-56
2022/04/26 09:13:20;;;;;;;8.05;7.18;;;15.30;99.90;;;;;;5060154;28;20174;-56
2022/04/26 09:15:54;;;;;;;8.27;7.57;;;15.50;96.80;;;;;;5045765;28;20185;-62
2022/04/26 09:18:26;;;;;;;8.00;7.40;;;15.40;97.20;;;;;;5039453;28;20277;-57
2022/04/26 09:20:55;;;;;;;9.35;7.32;;;15.40;98.30;;;;;;5047483;28;20207;-58
2022/04/26 09:23:22;;;;;;;7.70;7.00;;;15.00;98.00;;;;;;5064381;28;20254;-55
2022/04/26 09:25:52;;;;;;;9.85;7.50;;;14.50;98.60;;;;;;5062895;28;20208;-58
2022/04/26 09:28:23;;;;;;;8.15;7.47;;;14.30;98.40;;;;;;5080883;28;20904;-56
2022/04/26 09:30:49;;;;;;;7.82;7.00;;;14.60;99.00;;;;;;5070842;28;20236;-58
2022/04/26 09:33:38;;;;;;;8.60;7.90;;;14.60;98.20;;;;;;5063260;28;20287;-58
2022/04/26 09:36:11;;;;;;;7.97;7.32;;;15.00;99.00;;;;;;5064354;28;20177;-58
2022/04/26 09:38:47;;;;;;;8.95;8.05;;;14.90;97.80;;;;;;5070467;28;20189;-59
2022/04/26 09:41:13;;;;;;;8.00;6.75;;;14.90;97.10;;;;;;5067414;28;20267;-59
2022/04/26 09:43:39;;;;;;;8.33;6.57;;;15.80;96.70;;;;;;5059667;28;20277;-58
2022/04/26 09:46:06;;;;;;;7.30;6.60;;;16.70;93.70;;;;;;5068945;28;20439;-59
2022/04/26 09:48:37;;;;;;;9.98;7.20;;;17.60;92.70;;;;;;5064509;28;20193;-59
2022/04/26 09:51:04;;;;;;;6.50;5.90;;;18.10;90.90;;;;;;5064109;28;20188;-59
2022/04/26 09:53:31;;;;;;;8.10;7.30;;;18.30;87.60;;;;;;5052638;28;20231;-59
2022/04/26 09:55:57;;;;;;;7.75;7.13;;;18.20;86.90;;;;;;5059120;28;20185;-59
2022/04/26 09:58:27;;;;;;;6.53;5.93;;;18.60;86.40;;;;;;5069423;28;20214;-59
2022/04/26 10:00:54;;;;;;;7.05;6.45;;;19.40;80.90;;;;;;5070314;28;20280;-60
2022/04/26 10:03:24;;;;;;;6.70;6.20;;;19.70;79.30;;;;;;5057224;28;20209;-60
2022/04/26 10:06:05;;;;;;;7.97;7.15;;;20.10;74.60;;;;;;5067874;28;20188;-60
2022/04/26 10:08:34;;;;;;;5.78;5.28;;;20.00;74.20;;;;;;5054622;28;20196;-60
2022/04/26 10:11:01;;;;;;;6.80;6.30;;;18.60;73.60;;;;;;5065545;28;20550;-59
2022/04/26 10:13:32;;;;;;;6.22;5.63;;;17.60;76.10;;;;;;5062969;28;20254;-60
2022/04/26 10:16:07;;;;;;;6.05;5.50;;;17.20;77.40;;;;;;5063637;28;20195;-60
2022/04/26 10:18:34;;;;;;;5.97;5.45;;;16.80;78.60;;;;;;5061408;28;20562;-58
2022/04/26 10:21:01;;;;;;;6.38;5.88;;;16.80;80.10;;;;;;5066634;28;20192;-60
2022/04/26 10:23:27;;;;;;;7.05;5.93;;;17.20;82.80;;;;;;5061721;28;20246;-58
2022/04/26 10:29:07;;;;;;;5.70;5.15;;;17.50;80.60;;;;;;5063821;28;20189;-59
2022/04/26 10:31:47;;;;;;;5.30;4.90;;;18.10;78.20;;;;;;5054091;28;20400;-60
2022/04/26 10:34:29;;;;;;;5.53;4.93;;;18.50;77.80;;;;;;5065684;28;20207;-60
2022/04/26 10:36:59;;;;;;;5.85;5.35;;;19.00;75.20;;;;;;5067021;28;20227;-57
2022/04/26 10:39:26;;;;;;;5.97;5.07;;;19.10;76.30;;;;;;5071211;28;20170;-57
2022/04/26 10:41:53;;;;;;;5.68;4.97;;;18.80;73.20;;;;;;5068686;28;20716;-57
2022/04/26 10:44:22;;;;;;;6.05;5.13;;;19.30;74.60;;;;;;5055560;28;20193;-56
2022/04/26 10:47:07;;;;;;;6.57;4.95;;;19.40;70.70;;;;;;5064880;28;20530;-59
2022/04/26 10:49:37;;;;;;;5.25;4.75;;;19.20;71.70;;;;;;5060612;28;20256;-58
2022/04/26 10:52:19;;;;;;;5.20;4.70;;;19.20;71.30;;;;;;5072909;28;20193;-59
2022/04/26 10:57:27;;;;;;;5.93;5.28;;;18.20;70.60;;;;;;5070858;28;20222;-57
2022/04/26 10:59:56;;;;;;;6.43;5.72;;;18.00;73.20;;;;;;5071231;28;20181;-57
2022/04/26 11:02:23;;;;;;;5.20;4.80;;;17.60;73.20;;;;;;5068913;28;20183;-57
2022/04/26 11:05:16;;;;;;;5.65;4.25;;;17.30;71.50;;;;;;5069562;28;20299;-57
2022/04/26 11:07:47;;;;;;;4.47;4.18;;;17.60;67.40;;;;;;5073648;28;20345;-58
2022/04/26 11:10:15;;;;;;;6.32;4.70;;;18.00;69.10;;;;;;5068594;28;20523;-56
2022/04/26 11:12:40;;;;;;;7.65;6.95;;;17.90;68.40;;;;;;5074818;28;20287;-56
2022/04/26 11:15:09;;;;;;;6.30;4.73;;;17.10;67.70;;;;;;5066742;28;20236;-57
2022/04/26 11:17:35;;;;;;;4.05;3.65;;;17.10;70.10;;;;;;5068078;28;20490;-55
2022/04/26 11:20:14;;;;;;;6.40;4.18;;;17.80;69.90;;;;;;5069056;28;20189;-56
2022/04/26 11:22:53;;;;;;;4.25;3.90;;;17.60;66.90;;;;;;5063743;28;20193;-57
2022/04/26 11:28:14;;;;;;;9.95;7.20;;;17.30;79.10;;;;;;5071946;28;20199;-59
2022/04/26 11:30:48;;;;;;;8.13;7.45;;;16.90;84.40;;;;;;5065822;28;20184;-55
2022/04/26 11:33:19;;;;;;;9.98;7.80;;;16.80;87.50;;;;;;5070930;28;20187;-56
2022/04/26 11:35:51;;;;;;;8.75;7.95;;;17.20;88.10;;;;;;5069649;28;20228;-56
2022/04/26 11:38:17;;;;;;;8.60;7.90;;;17.90;84.70;;;;;;5071586;28;20292;-55
2022/04/26 11:41:00;;;;;;;8.07;7.33;;;18.80;80.50;;;;;;5066105;28;20267;-55
2022/04/26 11:43:28;;;;;;;8.48;6.20;;;18.90;78.40;;;;;;5070660;28;20958;-55
2022/04/26 11:45:56;;;;;;;8.05;7.35;;;18.50;79.70;;;;;;5071706;28;20214;-55
2022/04/26 11:48:24;;;;;;;8.35;7.65;;;17.30;81.90;;;;;;5068544;28;20192;-55
2022/04/26 11:50:51;;;;;;;8.40;7.70;;;16.60;84.70;;;;;;5064153;28;20226;-57
2022/04/26 11:53:22;;;;;;;8.65;7.80;;;16.50;84.50;;;;;;5066731;28;20216;-57
2022/04/26 11:55:58;;;;;;;8.43;7.60;;;16.10;87.10;;;;;;5069087;28;20319;-57
2022/04/26 11:58:27;;;;;;;7.93;7.22;;;16.00;88.60;;;;;;5071717;28;20176;-56
2022/04/26 12:01:02;;;;;;;7.60;6.90;;;15.40;89.40;;;;;;5063151;28;20701;-56
2022/04/26 12:03:52;;;;;;;7.28;6.68;;;15.40;90.30;;;;;;5061889;28;20211;-56
2022/04/26 12:06:19;;;;;;;6.70;6.20;;;15.30;89.50;;;;;;5060143;28;20649;-58
2022/04/26 12:08:53;;;;;;;7.13;5.95;;;15.90;89.90;;;;;;5071486;28;20185;-57
2022/04/26 12:11:28;;;;;;;6.63;6.03;;;15.90;85.80;;;;;;5068845;28;20189;-55
2022/04/26 12:13:58;;;;;;;6.85;6.28;;;16.20;85.20;;;;;;5066988;28;20277;-56
2022/04/26 12:16:24;;;;;;;6.18;5.57;;;16.20;84.40;;;;;;5068875;28;20237;-57
2022/04/26 12:18:52;;;;;;;6.93;5.80;;;15.90;82.90;;;;;;5064053;28;20272;-55
2022/04/26 12:21:18;;;;;;;7.20;5.72;;;15.60;84.50;;;;;;5069413;28;20185;-60
2022/04/26 12:23:44;;;;;;;5.88;5.38;;;15.70;84.90;;;;;;5066177;28;20207;-60
2022/04/26 12:26:10;;;;;;;6.60;5.90;;;15.70;84.70;;;;;;5059210;28;20174;-60
2022/04/26 12:28:50;;;;;;;6.60;6.00;;;15.70;85.20;;;;;;5066834;28;20435;-58
2022/04/26 12:31:29;;;;;;;6.63;5.93;;;15.30;86.80;;;;;;5069657;28;20437;-56
2022/04/26 12:34:13;;;;;;;5.80;5.30;;;15.30;87.90;;;;;;5063723;28;20387;-55
2022/04/26 12:36:54;;;;;;;7.10;6.40;;;15.30;89.10;;;;;;5062367;28;20205;-55
2022/04/26 12:39:25;;;;;;;6.47;5.93;;;15.60;88.60;;;;;;5066646;28;20291;-59
2022/04/26 12:41:55;;;;;;;6.78;5.97;;;15.40;89.90;;;;;;5080758;28;21062;-61
2022/04/26 12:44:22;;;;;;;6.72;5.90;;;15.20;90.10;;;;;;5069339;28;20560;-59
2022/04/26 12:52:31;;;;;;;5.57;4.47;;;14.00;94.50;;;;;;5064402;28;20222;-59
2022/04/26 12:54:57;;;;;;;4.70;4.38;;;13.40;96.00;;;;;;5060723;28;20578;-59
2022/04/26 12:57:22;;;;;;;7.10;4.53;;;13.50;97.90;;;;;;5063544;28;20216;-59
2022/04/26 12:59:48;;;;;;;4.30;3.90;;;13.40;98.20;;;;;;5071601;28;20189;-60
2022/04/26 13:02:13;;;;;;;4.30;3.13;;;13.30;97.10;;;;;;5060885;28;20199;-59
2022/04/26 13:04:39;;;;;;;3.27;2.97;;;13.10;97.60;;;;;;5052977;28;20200;-59
2022/04/26 13:07:05;;;;;;;4.33;3.93;;;12.60;98.20;;;;;;5070382;28;20214;-59
2022/04/26 13:09:31;;;;;;;4.13;3.83;;;12.30;99.90;;;;;;5070839;28;20222;-59
2022/04/26 13:11:59;;;;;;;4.37;3.97;;;12.20;99.90;;;;;;5063154;28;20453;-58
2022/04/26 13:14:26;;;;;;;5.20;4.00;;;12.10;99.90;;;;;;5063886;28;20256;-58
2022/04/26 13:16:52;;;;;;;4.63;4.22;;;12.30;99.90;;;;;;5066202;28;20244;-59
2022/04/26 13:19:17;;;;;;;4.27;3.87;;;11.90;99.90;;;;;;5069865;28;20648;-59
2022/04/26 13:21:43;;;;;;;4.57;4.17;;;12.20;99.90;;;;;;5070399;28;20188;-58
2022/04/26 13:24:10;;;;;;;3.93;3.63;;;12.50;99.90;;;;;;5060614;28;20235;-59
2022/04/26 13:26:36;;;;;;;4.63;3.20;;;12.50;99.90;;;;;;5072249;28;20348;-60
2022/04/26 13:29:03;;;;;;;3.50;3.20;;;13.00;99.90;;;;;;5062807;28;20768;-60
2022/04/26 13:31:29;;;;;;;3.25;3.05;;;13.50;98.80;;;;;;5069900;28;20185;-59
2022/04/26 13:33:56;;;;;;;3.60;3.30;;;14.10;97.60;;;;;;5060664;28;20717;-60
2022/04/26 13:36:22;;;;;;;6.03;5.32;;;14.30;96.40;;;;;;5059570;28;20447;-60
2022/04/26 13:38:47;;;;;;;3.87;3.57;;;14.60;97.10;;;;;;5072754;28;20237;-59
2022/04/26 13:41:13;;;;;;;3.70;3.40;;;14.70;97.50;;;;;;5071636;28;20181;-58
2022/04/26 13:43:41;;;;;;;3.60;3.30;;;14.70;96.20;;;;;;5074455;28;20208;-58
2022/04/26 13:46:07;;;;;;;3.95;3.17;;;14.60;94.20;;;;;;5068063;28;20270;-59
2022/04/26 13:48:33;;;;;;;4.13;3.67;;;14.60;93.30;;;;;;5061098;28;20287;-59
2022/04/26 13:50:58;;;;;;;3.60;3.30;;;14.40;94.70;;;;;;5063874;28;20193;-59
2022/04/26 13:53:24;;;;;;;5.20;2.40;;;14.40;96.20;;;;;;5069676;28;20662;-59
2022/04/26 13:55:49;;;;;;;3.30;3.00;;;14.20;95.00;;;;;;5067705;28;20203;-59
2022/04/26 13:58:15;;;;;;;3.17;2.90;;;14.30;95.30;;;;;;5064345;28;20265;-59
2022/04/26 14:00:40;;;;;;;3.13;2.63;;;14.40;93.10;;;;;;5067480;28;20195;-64
2022/04/26 14:03:06;;;;;;;2.90;2.47;;;14.30;93.30;;;;;;5057533;28;20243;-56
2022/04/26 14:05:33;;;;;;;2.80;2.60;;;14.70;93.10;;;;;;5061954;28;20297;-55
2022/04/26 14:07:58;;;;;;;2.38;2.28;;;14.70;89.80;;;;;;5069011;28;20180;-58
2022/04/26 14:10:24;;;;;;;2.33;2.13;;;14.70;90.00;;;;;;5068561;28;20296;-58
2022/04/26 14:12:49;;;;;;;3.17;2.87;;;14.40;88.90;;;;;;5063734;28;20311;-55
2022/04/26 14:23:31;;;;;;;2.63;2.42;;;14.40;88.60;;;;;;5072409;28;20245;-56
2022/04/26 14:25:58;;;;;;;3.03;2.73;;;14.60;88.60;;;;;;5064428;28;20561;-56
2022/04/26 14:28:23;;;;;;;4.50;3.30;;;14.90;87.70;;;;;;5076790;22;20639;-66
2022/04/26 14:30:49;;;;;;;8.83;7.90;;;15.00;90.20;;;;;;5088152;28;20176;-66
2022/04/26 14:33:15;;;;;;;4.37;3.90;;;14.90;90.00;;;;;;5086156;28;20179;-68
2022/04/26 14:35:41;;;;;;;4.20;3.90;;;15.00;89.30;;;;;;5067101;28;20199;-67
2022/04/26 14:38:10;;;;;;;3.70;3.40;;;15.10;90.10;;;;;;5068537;28;20545;-66
2022/04/26 14:40:36;;;;;;;3.65;3.35;;;15.20;89.60;;;;;;5066073;28;20664;-68
2022/04/26 14:43:01;;;;;;;3.80;3.50;;;15.20;89.60;;;;;;5067965;28;20219;-73
2022/04/26 14:45:32;;;;;;;4.10;3.70;;;15.20;87.60;;;;;;5066846;28;20435;-66
2022/04/26 14:47:58;;;;;;;4.78;4.25;;;14.90;90.50;;;;;;5068030;28;20187;-67
2022/04/26 14:50:23;;;;;;;3.87;3.50;;;14.50;90.90;;;;;;5065401;28;20189;-66
2022/04/26 14:52:51;;;;;;;3.53;3.00;;;14.60;90.10;;;;;;5065833;28;20446;-68
2022/04/26 14:55:17;;;;;;;3.65;3.35;;;14.90;90.10;;;;;;5068471;28;20212;-65
2022/04/26 14:57:43;;;;;;;4.47;3.70;;;15.10;88.10;;;;;;5067281;28;20631;-67
2022/04/26 15:00:09;;;;;;;4.33;4.03;;;15.40;89.10;;;;;;5070535;28;20187;-65
2022/04/26 15:02:38;;;;;;;3.17;2.97;;;15.40;89.20;;;;;;5065802;28;20605;-67
2022/04/26 15:05:08;;;;;;;3.15;2.92;;;15.10;86.20;;;;;;5072630;28;20220;-64
2022/04/26 15:10:20;;;;;;;4.07;2.90;;;15.10;84.30;;;;;;5068659;28;20239;-64
2022/04/26 15:18:14;;;;;;;3.45;3.15;;;15.40;85.90;;;;;;5064384;28;20266;-66
2022/04/26 15:20:45;;;;;;;3.67;3.37;;;15.00;87.00;;;;;;5065075;28;20172;-67
2022/04/26 15:23:11;;;;;;;4.15;3.75;;;15.10;86.80;;;;;;5069236;28;20258;-68
2022/04/26 15:25:36;;;;;;;4.53;4.13;;;15.20;87.00;;;;;;5068621;28;20260;-68
2022/04/26 15:28:02;;;;;;;4.03;3.50;;;15.20;88.30;;;;;;5064410;28;20225;-67
2022/04/26 15:30:28;;;;;;;4.35;3.63;;;15.10;87.80;;;;;;5058051;28;20200;-66
2022/04/26 15:32:54;;;;;;;3.80;3.50;;;15.20;88.10;;;;;;5056682;28;20700;-67
2022/04/26 15:35:19;;;;;;;3.50;3.20;;;15.00;86.50;;;;;;5071228;28;20205;-66
2022/04/26 15:37:45;;;;;;;4.30;3.73;;;15.00;86.80;;;;;;5073040;28;20216;-67
2022/04/26 15:40:11;;;;;;;12.30;8.00;;;14.70;89.50;;;;;;5074259;28;20181;-66
2022/04/26 15:42:36;;;;;;;3.67;3.40;;;14.60;90.40;;;;;;5068974;28;20177;-66
2022/04/26 15:45:02;;;;;;;4.13;3.63;;;14.40;90.40;;;;;;5075546;28;20204;-67
2022/04/26 15:47:29;;;;;;;3.70;3.40;;;14.10;90.90;;;;;;5062835;28;20193;-66
2022/04/26 15:49:55;;;;;;;4.03;3.63;;;14.30;92.50;;;;;;5065518;28;20628;-72
2022/04/26 15:52:21;;;;;;;6.20;3.83;;;14.00;93.20;;;;;;5071000;28;20205;-63
2022/04/26 15:54:46;;;;;;;4.50;3.83;;;14.00;95.00;;;;;;5071507;28;20979;-63
2022/04/26 15:57:12;;;;;;;3.83;3.53;;;13.70;98.60;;;;;;5070857;28;20212;-63
2022/04/26 15:59:39;;;;;;;3.90;3.60;;;12.90;97.70;;;;;;5073902;28;20179;-63
2022/04/26 16:02:07;;;;;;;3.67;3.30;;;13.00;99.90;;;;;;5065940;28;20188;-66
2022/04/26 16:04:33;;;;;;;5.10;2.95;;;13.20;99.90;;;;;;5073767;28;20199;-66
2022/04/26 16:06:59;;;;;;;6.05;5.45;;;12.80;99.90;;;;;;5076082;28;20187;-64
2022/04/26 16:20:30;;;;;;;3.40;3.10;;;12.70;99.90;;;;;;5070010;28;20658;-64
2022/04/26 16:22:58;;;;;;;2.65;2.40;;;13.30;99.90;;;;;;5066559;28;20620;-64
2022/04/26 16:25:24;;;;;;;2.72;2.53;;;13.00;99.90;;;;;;5070555;28;20208;-64
2022/04/26 16:27:49;;;;;;;3.17;2.93;;;12.80;99.90;;;;;;5070988;28;20650;-64
2022/04/26 16:30:16;;;;;;;2.77;2.57;;;13.10;99.90;;;;;;5068255;28;20611;-63
2022/04/26 16:32:42;;;;;;;3.38;3.08;;;12.70;99.90;;;;;;5077441;28;20196;-64
2022/04/26 16:35:08;;;;;;;4.50;3.88;;;12.80;99.90;;;;;;5069515;28;20212;-64
2022/04/26 16:37:35;;;;;;;3.03;2.83;;;12.90;99.90;;;;;;5073402;28;20212;-64
2022/04/26 16:40:01;;;;;;;3.40;3.10;;;12.60;99.90;;;;;;5069162;28;20255;-63
2022/04/26 16:42:26;;;;;;;4.03;3.63;;;12.70;99.90;;;;;;5069500;28;20185;-66
2022/04/26 16:44:52;;;;;;;3.60;3.30;;;12.60;99.90;;;;;;5069845;28;20204;-65
2022/04/26 16:47:18;;;;;;;4.43;4.03;;;13.00;99.90;;;;;;5067770;28;20644;-63
2022/04/26 16:49:43;;;;;;;3.63;3.33;;;13.00;99.90;;;;;;5070064;28;20470;-66
2022/04/26 16:52:09;;;;;;;4.10;3.77;;;13.20;99.90;;;;;;5069234;28;20188;-64
2022/04/26 16:54:35;;;;;;;4.13;3.63;;;12.90;99.90;;;;;;5069135;28;20513;-64
2022/04/26 16:57:01;;;;;;;3.80;3.43;;;12.90;99.90;;;;;;5066961;28;20613;-64
2022/04/26 16:59:29;;;;;;;3.20;2.90;;;12.40;99.90;;;;;;5069918;28;20173;-63
2022/04/26 17:01:55;;;;;;;3.22;2.95;;;12.40;99.90;;;;;;5062918;28;20213;-64
2022/04/26 17:04:21;;;;;;;2.70;2.50;;;12.30;99.90;;;;;;5057150;28;20226;-65
2022/04/26 17:06:47;;;;;;;2.90;2.65;;;12.50;99.90;;;;;;5074845;28;20500;-64
2022/04/26 17:09:12;;;;;;;3.23;2.80;;;12.10;99.90;;;;;;5069242;28;20589;-64
2022/04/26 17:11:41;;;;;;;3.07;2.77;;;12.20;99.90;;;;;;5068909;28;20202;-64
2022/04/26 17:14:07;;;;;;;3.20;3.00;;;12.10;99.90;;;;;;5069017;28;20211;-64